createdAt,value
2018-09-13T00:01:24.759Z,99193.90
2018-09-13T00:03:52.453Z,99207.92
2018-09-13T00:06:20.161Z,99208.90
2018-09-13T00:08:47.860Z,99205.45
2018-09-13T00:11:15.526Z,99212.53
2018-09-13T00:13:43.300Z,99216.22
2018-09-13T00:16:11.003Z,99219.33
2018-09-13T00:18:38.676Z,99225.08
2018-09-13T00:21:06.733Z,99227.56
2018-09-13T00:23:34.418Z,99233.98
2018-09-13T00:26:02.095Z,99239.47
2018-09-13T00:28:29.847Z,99243.05
2018-09-13T00:30:57.792Z,99240.98
2018-09-13T00:33:25.467Z,99242.30
2018-09-13T00:35:53.277Z,99248.91
2018-09-13T00:38:20.957Z,99248.91
2018-09-13T00:40:48.629Z,99251.55
2018-09-13T00:43:16.310Z,99253.22
2018-09-13T00:45:44.014Z,99248.13
2018-09-13T00:48:11.672Z,99251.63
2018-09-13T00:50:39.440Z,99262.19
2018-09-13T00:53:07.213Z,99258.70
2018-09-13T00:55:34.868Z,99267.94
2018-09-13T00:58:02.551Z,99274.27
2018-09-13T01:00:30.236Z,99275.70
2018-09-13T01:02:57.942Z,99280.98
2018-09-13T01:05:25.664Z,99280.98
2018-09-13T01:08:10.349Z,99284.17
2018-09-13T01:10:38.133Z,99279.94
2018-09-13T01:13:05.937Z,99289.27
2018-09-13T01:15:33.722Z,99287.59
2018-09-13T01:18:01.501Z,99289.45
2018-09-13T01:20:29.293Z,99294.19
2018-09-13T01:22:57.132Z,99299.94
2018-09-13T01:25:24.896Z,99306.92
2018-09-13T01:27:52.588Z,99309.06
2018-09-13T01:30:20.339Z,99326.15
2018-09-13T01:32:48.004Z,99320.68
2018-09-13T01:35:15.765Z,99321.92
2018-09-13T01:37:43.464Z,99326.23
2018-09-13T01:40:11.159Z,99330.97
2018-09-13T01:42:38.834Z,99333.23
2018-09-13T01:45:06.572Z,99335.40
2018-09-13T01:47:34.320Z,99339.91
2018-09-13T01:50:01.984Z,99344.17
2018-09-13T01:52:29.686Z,99355.48
2018-09-13T01:54:57.372Z,99346.34
2018-09-13T01:57:25.079Z,99356.41
2018-09-13T01:59:52.765Z,99353.77
2018-09-13T02:02:20.431Z,99356.41
2018-09-13T02:04:48.132Z,99359.55
2018-09-13T02:07:15.821Z,99363.02
2018-09-13T02:09:43.502Z,99368.22
2018-09-13T02:12:11.226Z,99371.33
2018-09-13T02:14:38.908Z,99370.59
2018-09-13T02:17:06.579Z,99378.05
2018-09-13T02:19:34.543Z,99377.08
2018-09-13T02:22:02.263Z,99381.89
2018-09-13T02:24:29.955Z,99383.21
2018-09-13T02:26:57.692Z,99391.52
2018-09-13T02:29:25.367Z,99384.92
2018-09-13T02:31:53.052Z,99391.87
2018-09-13T02:34:20.749Z,99394.83
2018-09-13T02:36:48.456Z,99398.80
2018-09-13T02:39:16.145Z,99403.61
2018-09-13T02:41:43.928Z,99413.21
2018-09-13T02:44:11.641Z,99415.39
2018-09-13T02:46:39.345Z,99413.48
2018-09-13T02:49:07.134Z,99418.14
2018-09-13T02:51:34.855Z,99421.79
2018-09-13T02:54:02.607Z,99431.22
2018-09-13T02:56:30.391Z,99431.41
2018-09-13T02:58:58.105Z,99435.48
2018-09-13T03:01:25.816Z,99435.73
2018-09-13T03:03:53.513Z,99449.98
2018-09-13T03:06:21.181Z,99447.60
2018-09-13T03:08:48.862Z,99452.78
2018-09-13T03:11:16.566Z,99462.46
2018-09-13T03:13:44.257Z,99465.54
2018-09-13T03:16:11.944Z,99463.44
2018-09-13T03:18:39.648Z,99472.18
2018-09-13T03:21:07.408Z,99478.67
2018-09-13T03:23:35.169Z,99479.27
2018-09-13T03:26:02.842Z,99485.07
2018-09-13T03:28:30.604Z,99486.05
2018-09-13T03:30:58.351Z,99499.37
2018-09-13T03:33:26.154Z,99503.80
2018-09-13T03:35:53.883Z,99512.91
2018-09-13T03:38:21.556Z,99509.97
2018-09-13T03:40:49.232Z,99512.95
2018-09-13T03:43:17.144Z,99511.11
2018-09-13T03:45:44.914Z,99511.22
2018-09-13T03:48:12.597Z,99509.14
2018-09-13T03:50:40.331Z,99523.17
2018-09-13T03:53:08.017Z,99528.50
2018-09-13T03:55:35.741Z,99532.16
2018-09-13T03:58:03.431Z,99539.21
2018-09-13T04:00:31.120Z,99546.35
2018-09-13T04:02:58.842Z,99550.07
2018-09-13T04:05:26.556Z,99551.95
2018-09-13T04:07:54.260Z,99552.86
2018-09-13T04:10:22.061Z,99557.34
2018-09-13T04:12:49.934Z,99572.38
2018-09-13T04:15:18.231Z,99575.18
2018-09-13T04:17:45.935Z,99570.23
2018-09-13T04:20:13.657Z,99578.98
2018-09-13T04:22:41.415Z,99586.19
2018-09-13T04:25:09.130Z,99593.30
2018-09-13T04:27:36.816Z,99596.09
2018-09-13T04:30:04.787Z,99598.81
2018-09-13T04:32:32.465Z,99594.77
2018-09-13T04:35:00.143Z,99601.42
2018-09-13T04:37:27.911Z,99611.03
2018-09-13T04:39:56.199Z,99613.67
2018-09-13T04:42:23.904Z,99618.94
2018-09-13T04:44:51.563Z,99618.23
2018-09-13T04:47:19.240Z,99622.17
2018-09-13T04:49:46.994Z,99623.38
2018-09-13T04:52:14.756Z,99621.90
2018-09-13T04:54:42.448Z,99623.98
2018-09-13T04:57:10.195Z,99628.39
2018-09-13T04:59:37.926Z,99634.45
2018-09-13T05:02:05.651Z,99632.12
2018-09-13T05:04:33.315Z,99632.42
2018-09-13T05:07:01.014Z,99636.94
2018-09-13T05:09:28.676Z,99638.84
2018-09-13T05:11:56.516Z,99641.20
2018-09-13T05:14:24.398Z,99644.28
2018-09-13T05:16:52.251Z,99643.01
2018-09-13T05:19:20.164Z,99648.37
2018-09-13T05:21:48.000Z,99651.62
2018-09-13T05:24:15.872Z,99641.23
2018-09-13T05:26:43.811Z,99657.86
2018-09-13T05:29:11.688Z,99662.31
2018-09-13T05:31:39.610Z,99666.30
2018-09-13T05:34:07.500Z,99674.53
2018-09-13T05:36:35.738Z,99671.73
2018-09-13T05:39:05.624Z,99678.41
2018-09-13T05:41:33.540Z,99682.23
2018-09-13T05:44:01.436Z,99683.47
2018-09-13T05:46:29.355Z,99697.94
2018-09-13T05:48:57.238Z,99696.37
2018-09-13T05:51:25.120Z,99698.95
2018-09-13T05:53:53.039Z,99700.88
2018-09-13T05:56:20.904Z,99699.28
2018-09-13T05:58:48.783Z,99700.64
2018-09-13T06:01:16.772Z,99698.95
2018-09-13T06:03:44.692Z,99709.61
2018-09-13T06:06:12.541Z,99709.09
2018-09-13T06:08:40.471Z,99712.05
2018-09-13T06:11:08.405Z,99705.89
2018-09-13T06:13:36.412Z,99715.98
2018-09-13T06:16:04.318Z,99716.58
2018-09-13T06:18:32.342Z,99715.64
2018-09-13T06:21:00.289Z,99714.16
2018-09-13T06:23:28.175Z,99718.16
2018-09-13T06:25:56.044Z,99727.58
2018-09-13T06:28:23.950Z,99731.42
2018-09-13T06:30:52.033Z,99733.39
2018-09-13T06:33:19.916Z,99738.12
2018-09-13T06:35:47.822Z,99738.47
2018-09-13T06:38:15.765Z,99735.22
2018-09-13T06:40:43.607Z,99744.80
2018-09-13T06:43:11.457Z,99746.98
2018-09-13T06:45:39.373Z,99739.20
2018-09-13T06:48:07.240Z,99748.06
2018-09-13T06:50:35.156Z,99751.31
2018-09-13T06:53:03.063Z,99749.41
2018-09-13T06:55:30.973Z,99759.18
2018-09-13T06:57:58.831Z,99751.13
2018-09-13T07:00:26.700Z,99761.22
2018-09-13T07:02:54.565Z,99777.03
2018-09-13T07:05:22.661Z,99777.66
2018-09-13T07:07:50.513Z,99771.01
2018-09-13T07:10:18.433Z,99784.15
2018-09-13T07:12:46.381Z,99782.80
2018-09-13T07:15:14.263Z,99789.26
2018-09-13T07:17:42.159Z,99788.91
2018-09-13T07:20:10.050Z,99780.97
2018-09-13T07:22:37.952Z,99789.75
2018-09-13T07:25:05.929Z,99797.48
2018-09-13T07:27:33.793Z,99795.46
2018-09-13T07:30:01.700Z,99790.30
2018-09-13T07:32:29.589Z,99798.40
2018-09-13T07:34:57.509Z,99798.50
2018-09-13T07:37:25.400Z,99797.81
2018-09-13T07:39:53.336Z,99800.83
2018-09-13T07:42:21.297Z,99806.19
2018-09-13T07:44:49.312Z,99814.23
2018-09-13T07:47:17.229Z,99823.30
2018-09-13T07:49:45.245Z,99823.70
2018-09-13T07:52:13.069Z,99838.23
2018-09-13T07:54:41.008Z,99837.84
2018-09-13T07:57:08.922Z,99838.23
2018-09-13T07:59:36.833Z,99841.36
2018-09-13T08:02:04.762Z,99847.44
2018-09-13T08:04:32.729Z,99850.66
2018-09-13T08:07:00.668Z,99855.86
2018-09-13T08:09:28.556Z,99852.62
2018-09-13T08:11:56.566Z,99851.74
2018-09-13T08:14:24.462Z,99859.22
2018-09-13T08:16:52.480Z,99858.05
2018-09-13T08:19:20.377Z,99858.48
2018-09-13T08:21:48.515Z,99867.17
2018-09-13T08:24:16.331Z,99873.76
2018-09-13T08:26:44.245Z,99874.84
2018-09-13T08:29:12.239Z,99874.84
2018-09-13T08:31:40.176Z,99880.28
2018-09-13T08:34:08.091Z,99879.02
2018-09-13T08:36:36.036Z,99887.88
2018-09-13T08:39:05.992Z,99889.69
2018-09-13T08:41:33.878Z,99896.36
2018-09-13T08:44:01.799Z,99903.10
2018-09-13T08:46:29.684Z,99903.73
2018-09-13T08:48:57.614Z,99908.47
2018-09-13T08:51:25.519Z,99906.94
2018-09-13T08:53:53.499Z,99911.97
2018-09-13T08:56:21.421Z,99918.64
2018-09-13T08:58:49.527Z,99934.07
2018-09-13T09:01:17.506Z,99926.98
2018-09-13T09:03:45.445Z,99931.06
2018-09-13T09:06:13.398Z,99932.16
2018-09-13T09:08:41.347Z,99935.92
2018-09-13T09:11:09.292Z,99945.88
2018-09-13T09:13:37.321Z,99948.53
2018-09-13T09:16:05.220Z,99949.17
2018-09-13T09:18:33.196Z,99954.46
2018-09-13T09:21:01.187Z,99953.40
2018-09-13T09:23:29.112Z,99954.57
2018-09-13T09:25:57.053Z,99960.28
2018-09-13T09:28:25.052Z,99960.42
2018-09-13T09:30:53.012Z,99959.78
2018-09-13T09:33:20.948Z,99966.09
2018-09-13T09:35:48.853Z,99964.75
2018-09-13T09:38:16.792Z,99965.00
2018-09-13T09:40:44.795Z,99967.19
2018-09-13T09:43:12.716Z,99967.98
2018-09-13T09:45:40.624Z,99984.72
2018-09-13T09:48:08.744Z,99976.41
2018-09-13T09:50:36.646Z,99980.20
2018-09-13T09:53:04.597Z,99972.83
2018-09-13T09:55:32.501Z,99980.35
2018-09-13T09:58:00.539Z,99984.64
2018-09-13T10:00:33.970Z,99977.25
2018-09-13T10:03:01.914Z,99978.67
2018-09-13T10:05:29.806Z,99987.75
2018-09-13T10:07:57.705Z,99990.17
2018-09-13T10:10:25.581Z,99999.32
2018-09-13T10:12:53.550Z,99990.70
2018-09-13T10:15:26.965Z,99994.70
2018-09-13T10:19:03.273Z,99990.16
2018-09-13T10:21:36.504Z,99989.02
2018-09-13T10:24:09.853Z,99990.73
2018-09-13T10:26:43.073Z,99993.79
2018-09-13T10:29:16.533Z,99995.73
2018-09-13T10:31:49.808Z,100002.55
2018-09-13T10:34:23.270Z,100000.46
2018-09-13T10:36:56.592Z,99998.81
2018-09-13T10:39:29.999Z,99998.31
2018-09-13T10:42:03.329Z,100004.96
2018-09-13T10:44:36.947Z,100007.88
2018-09-13T10:47:10.357Z,100017.20
2018-09-13T10:49:43.895Z,100024.47
2018-09-13T10:52:16.212Z,100034.09
2018-09-13T10:54:44.216Z,100027.40
2018-09-13T10:57:47.205Z,100025.21
2018-09-13T11:00:15.309Z,100043.11
2018-09-13T11:02:43.228Z,100045.16
2018-09-13T11:05:11.135Z,100050.39
2018-09-13T11:07:39.076Z,100047.97
2018-09-13T11:10:07.116Z,100056.93
2018-09-13T11:12:41.204Z,100057.97
2018-09-13T11:15:20.433Z,100070.88
2018-09-13T11:17:48.352Z,100074.31
2018-09-13T11:20:16.328Z,100074.91
2018-09-13T11:22:44.436Z,100075.95
2018-09-13T11:25:12.316Z,100088.19
2018-09-13T11:27:40.227Z,100089.55
2018-09-13T11:30:08.247Z,100090.16
2018-09-13T11:32:36.204Z,100093.45
2018-09-13T11:35:04.136Z,100096.00
2018-09-13T11:37:32.145Z,100097.58
2018-09-13T11:40:00.140Z,100092.95
2018-09-13T11:42:27.959Z,100108.80
2018-09-13T11:44:55.900Z,100108.69
2018-09-13T11:47:23.800Z,100112.86
2018-09-13T11:49:51.724Z,100119.91
2018-09-13T11:52:19.613Z,100117.92
2018-09-13T11:54:47.547Z,100124.66
2018-09-13T11:57:15.425Z,100128.12
2018-09-13T11:59:43.372Z,100124.84
2018-09-13T12:02:11.369Z,100130.73
2018-09-13T12:04:39.304Z,100132.03
2018-09-13T12:07:07.296Z,100119.59
2018-09-13T12:09:35.181Z,100119.92
2018-09-13T12:12:03.076Z,100113.33
2018-09-13T12:14:31.186Z,100127.20
2018-09-13T12:16:59.083Z,100137.27
2018-09-13T12:19:27.043Z,100130.85
2018-09-13T12:21:54.961Z,100131.00
2018-09-13T12:24:22.891Z,100124.78
2018-09-13T12:26:50.764Z,100127.48
2018-09-13T12:29:18.723Z,100131.70
2018-09-13T12:31:46.611Z,100127.23
2018-09-13T12:34:14.547Z,100122.61
2018-09-13T12:36:42.456Z,100135.40
2018-09-13T12:39:11.740Z,100127.50
2018-09-13T12:41:40.028Z,100138.03
2018-09-13T12:44:08.436Z,100133.59
2018-09-13T12:46:36.389Z,100136.91
2018-09-13T12:49:04.432Z,100141.17
2018-09-13T12:51:32.415Z,100147.33
2018-09-13T12:54:00.743Z,100139.59
2018-09-13T12:56:28.689Z,100134.95
2018-09-13T12:58:56.632Z,100138.53
2018-09-13T13:01:24.551Z,100140.68
2018-09-13T13:03:52.432Z,100130.40
2018-09-13T13:06:20.316Z,100135.23
2018-09-13T13:08:48.375Z,100141.45
2018-09-13T13:11:16.216Z,100143.55
2018-09-13T13:13:44.097Z,100139.16
2018-09-13T13:16:11.985Z,100146.73
2018-09-13T13:18:39.947Z,100155.00
2018-09-13T13:21:07.820Z,100151.30
2018-09-13T13:23:35.704Z,100156.16
2018-09-13T13:26:03.632Z,100154.57
2018-09-13T13:28:31.517Z,100157.09
2018-09-13T13:30:59.411Z,100162.98
2018-09-13T13:33:27.340Z,100163.93
2018-09-13T13:35:55.256Z,100159.09
2018-09-13T13:38:23.134Z,100160.33
2018-09-13T13:40:51.050Z,100167.69
2018-09-13T13:43:18.936Z,100163.45
2018-09-13T13:45:46.869Z,100163.98
2018-09-13T13:48:14.917Z,100163.50
2018-09-13T13:50:42.796Z,100165.09
2018-09-13T13:53:10.707Z,100165.95
2018-09-13T13:55:38.633Z,100166.70
2018-09-13T13:58:06.538Z,100162.57
2018-09-13T14:00:34.491Z,100163.81
2018-09-13T14:03:02.391Z,100163.58
2018-09-13T14:05:30.302Z,100171.63
2018-09-13T14:07:58.238Z,100172.72
2018-09-13T14:10:26.107Z,100176.98
2018-09-13T14:12:53.991Z,100177.72
2018-09-13T14:15:21.975Z,100180.98
2018-09-13T14:17:49.874Z,100190.18
2018-09-13T14:20:17.895Z,100186.03
2018-09-13T14:22:45.864Z,100178.98
2018-09-13T14:25:13.862Z,100189.78
2018-09-13T14:27:41.875Z,100189.87
2018-09-13T14:30:09.792Z,100190.92
2018-09-13T14:32:37.703Z,100188.45
2018-09-13T14:35:05.683Z,100186.16
2018-09-13T14:37:33.570Z,100197.78
2018-09-13T14:40:01.609Z,100198.11
2018-09-13T14:42:29.458Z,100194.03
2018-09-13T14:44:57.363Z,100198.73
2018-09-13T14:47:25.309Z,100198.47
2018-09-13T14:49:53.168Z,100202.51
2018-09-13T14:52:21.136Z,100204.17
2018-09-13T14:54:49.102Z,100203.04
2018-09-13T14:57:17.427Z,100203.13
2018-09-13T14:59:45.284Z,100207.11
2018-09-13T15:02:13.177Z,100206.25
2018-09-13T15:04:41.372Z,100211.11
2018-09-13T15:07:09.308Z,100201.75
2018-09-13T15:09:37.206Z,100206.48
2018-09-13T15:12:05.129Z,100201.94
2018-09-13T15:14:33.056Z,100210.67
2018-09-13T15:17:00.923Z,100207.09
2018-09-13T15:19:28.933Z,100208.77
2018-09-13T15:21:56.788Z,100212.67
2018-09-13T15:24:24.786Z,100218.53
2018-09-13T15:26:52.605Z,100215.73
2018-09-13T15:29:20.467Z,100213.34
2018-09-13T15:31:48.353Z,100216.11
2018-09-13T15:34:16.224Z,100220.97
2018-09-13T15:36:44.254Z,100220.84
2018-09-13T15:39:13.063Z,100221.82
2018-09-13T15:41:41.024Z,100224.13
2018-09-13T15:44:09.045Z,100226.84
2018-09-13T15:46:36.916Z,100221.65
2018-09-13T15:49:05.099Z,100224.79
2018-09-13T15:51:32.988Z,100227.37
2018-09-13T15:54:00.865Z,100222.59
2018-09-13T15:56:28.776Z,100228.48
2018-09-13T15:58:56.780Z,100228.55
2018-09-13T16:01:24.691Z,100229.44
2018-09-13T16:03:52.675Z,100231.95
2018-09-13T16:06:20.527Z,100234.77
2018-09-13T16:08:48.377Z,100243.04
2018-09-13T16:11:16.283Z,100242.20
2018-09-13T16:13:44.159Z,100246.06
2018-09-13T16:16:12.084Z,100246.63
2018-09-13T16:18:39.951Z,100253.41
2018-09-13T16:21:08.189Z,100252.95
2018-09-13T16:23:36.104Z,100256.20
2018-09-13T16:26:04.312Z,100254.69
2018-09-13T16:28:32.228Z,100256.96
2018-09-13T16:31:00.138Z,100249.68
2018-09-13T16:33:28.073Z,100256.88
2018-09-13T16:35:58.984Z,100258.00
2018-09-13T16:38:32.297Z,100262.05
2018-09-13T16:41:07.398Z,100257.12
2018-09-13T16:43:40.760Z,100256.83
2018-09-13T16:46:09.408Z,100258.80
2018-09-13T16:48:43.192Z,100265.13
2018-09-13T16:51:11.477Z,100263.96
2018-09-13T16:53:39.532Z,100272.19
2018-09-13T16:56:07.997Z,100264.45
2018-09-13T16:58:35.981Z,100269.19
2018-09-13T17:01:03.993Z,100268.11
2018-09-13T17:03:31.863Z,100269.62
2018-09-13T17:05:59.762Z,100264.88
2018-09-13T17:08:27.668Z,100273.78
2018-09-13T17:10:55.567Z,100264.95
2018-09-13T17:13:23.427Z,100268.47
2018-09-13T17:15:51.298Z,100272.16
2018-09-13T17:18:19.172Z,100270.23
2018-09-13T17:20:46.995Z,100278.94
2018-09-13T17:23:15.000Z,100279.83
2018-09-13T17:25:42.916Z,100280.88
2018-09-13T17:28:10.770Z,100283.12
2018-09-13T17:30:38.468Z,100284.86
2018-09-13T17:33:06.152Z,100288.42
2018-09-13T17:35:33.841Z,100284.73
2018-09-13T17:38:01.613Z,100290.47
2018-09-13T17:40:29.344Z,100288.98
2018-09-13T17:42:57.035Z,100296.41
2018-09-13T17:45:24.842Z,100295.71
2018-09-13T17:47:52.584Z,100297.83
2018-09-13T17:50:20.424Z,100291.94
2018-09-13T17:52:48.221Z,100293.89
2018-09-13T17:55:16.044Z,100293.19
2018-09-13T17:57:43.712Z,100299.52
2018-09-13T18:00:12.953Z,100295.31
2018-09-13T18:02:40.716Z,100293.82
2018-09-13T18:05:08.835Z,100291.17
2018-09-13T18:07:36.594Z,100297.80
2018-09-13T18:10:04.793Z,100298.26
2018-09-13T18:12:32.552Z,100297.95
2018-09-13T18:15:00.322Z,100299.84
2018-09-13T18:17:28.263Z,100297.09
2018-09-13T18:19:56.024Z,100311.30
2018-09-13T18:22:23.703Z,100304.52
2018-09-13T18:24:51.440Z,100309.65
2018-09-13T18:27:19.265Z,100312.20
2018-09-13T18:29:46.979Z,100316.17
2018-09-13T18:32:14.672Z,100310.34
2018-09-13T18:34:42.967Z,100310.60
2018-09-13T18:37:10.742Z,100310.52
2018-09-13T18:39:39.440Z,100318.69
2018-09-13T18:42:07.187Z,100318.55
2018-09-13T18:44:34.897Z,100323.30
2018-09-13T18:47:02.613Z,100323.46
2018-09-13T18:49:30.445Z,100329.53
2018-09-13T18:51:58.220Z,100330.77
2018-09-13T18:54:25.960Z,100332.41
2018-09-13T18:56:53.750Z,100327.48
2018-09-13T18:59:21.507Z,100331.36
2018-09-13T19:01:49.187Z,100328.47
2018-09-13T19:04:16.903Z,100331.72
2018-09-13T19:06:44.731Z,100332.42
2018-09-13T19:09:12.413Z,100333.66
2018-09-13T19:11:40.140Z,100339.76
2018-09-13T19:14:07.850Z,100338.42
2018-09-13T19:16:35.564Z,100335.77
2018-09-13T19:19:03.351Z,100342.18
2018-09-13T19:21:31.240Z,100337.73
2018-09-13T19:23:58.953Z,100326.45
2018-09-13T19:26:26.657Z,100332.80
2018-09-13T19:28:54.392Z,100336.58
2018-09-13T19:31:22.091Z,100340.11
2018-09-13T19:33:49.804Z,100339.98
2018-09-13T19:36:17.524Z,100339.41
2018-09-13T19:38:45.337Z,100337.96
2018-09-13T19:41:13.552Z,100337.78
2018-09-13T19:43:41.305Z,100343.66
2018-09-13T19:46:09.040Z,100344.30
2018-09-13T19:48:36.722Z,100339.75
2018-09-13T19:51:04.629Z,100342.21
2018-09-13T19:53:32.254Z,100344.26
2018-09-13T19:55:59.957Z,100343.26
2018-09-13T19:58:27.628Z,100339.62
2018-09-13T20:00:55.351Z,100340.29
2018-09-13T20:03:23.101Z,100343.64
2018-09-13T20:05:50.803Z,100341.32
2018-09-13T20:08:18.588Z,100341.25
2018-09-13T20:10:46.327Z,100336.29
2018-09-13T20:13:13.987Z,100339.19
2018-09-13T20:15:41.669Z,100337.63
2018-09-13T20:18:09.565Z,100337.55
2018-09-13T20:20:37.203Z,100336.08
2018-09-13T20:23:04.916Z,100340.16
2018-09-13T20:25:32.732Z,100342.31
2018-09-13T20:28:00.425Z,100346.55
2018-09-13T20:30:28.129Z,100345.07
2018-09-13T20:32:55.943Z,100351.52
2018-09-13T20:35:23.599Z,100349.46
2018-09-13T20:37:51.365Z,100354.36
2018-09-13T20:40:19.188Z,100350.77
2018-09-13T20:42:46.892Z,100360.34
2018-09-13T20:45:14.568Z,100360.16
2018-09-13T20:47:42.251Z,100363.02
2018-09-13T20:50:09.920Z,100361.00
2018-09-13T20:52:37.609Z,100359.13
2018-09-13T20:55:05.340Z,100361.09
2018-09-13T20:57:33.048Z,100356.50
2018-09-13T21:00:00.848Z,100355.14
2018-09-13T21:02:28.580Z,100362.95
2018-09-13T21:04:56.276Z,100359.37
2018-09-13T21:07:24.004Z,100365.30
2018-09-13T21:09:51.784Z,100363.06
2018-09-13T21:12:19.483Z,100362.79
2018-09-13T21:14:47.185Z,100367.28
2018-09-13T21:17:15.031Z,100362.66
2018-09-13T21:19:42.612Z,100362.41
2018-09-13T21:22:10.885Z,100357.81
2018-09-13T21:24:38.656Z,100363.66
2018-09-13T21:27:06.399Z,100362.02
2018-09-13T21:29:34.137Z,100367.69
2018-09-13T21:32:01.937Z,100365.84
2018-09-13T21:34:29.616Z,100381.38
2018-09-13T21:36:58.012Z,100385.03
2018-09-13T21:39:25.697Z,100376.77
2018-09-13T21:41:53.384Z,100371.32
2018-09-13T21:44:21.993Z,100375.80
2018-09-13T21:46:49.664Z,100385.98
2018-09-13T21:49:17.361Z,100378.78
2018-09-13T21:51:45.167Z,100381.68
2018-09-13T21:54:12.916Z,100384.58
2018-09-13T21:56:40.652Z,100378.77
2018-09-13T21:59:08.336Z,100375.55
2018-09-13T22:01:36.028Z,100378.38
2018-09-13T22:04:03.814Z,100374.52
2018-09-13T22:06:31.549Z,100375.50
2018-09-13T22:08:59.279Z,100374.90
2018-09-13T22:11:27.129Z,100380.04
2018-09-13T22:13:54.833Z,100369.80
2018-09-13T22:16:22.516Z,100372.50
2018-09-13T22:18:50.245Z,100368.77
2018-09-13T22:21:18.026Z,100366.75
2018-09-13T22:23:45.679Z,100364.66
2018-09-13T22:26:13.399Z,100357.48
2018-09-13T22:28:41.070Z,100362.37
2018-09-13T22:31:08.795Z,100356.80
2018-09-13T22:33:36.487Z,100356.02
2018-09-13T22:36:04.185Z,100359.08
2018-09-13T22:38:31.868Z,100353.05
2018-09-13T22:40:59.546Z,100352.68
2018-09-13T22:43:31.717Z,100346.71
2018-09-13T22:45:59.416Z,100348.48
2018-09-13T22:48:27.067Z,100341.20
2018-09-13T22:50:54.778Z,100339.63
2018-09-13T22:53:22.545Z,100333.70
2018-09-13T22:55:50.219Z,100338.64
2018-09-13T22:58:17.928Z,100335.16
2018-09-13T23:00:45.675Z,100332.59
2018-09-13T23:03:13.388Z,100319.25
2018-09-13T23:05:41.077Z,100319.41
2018-09-13T23:08:08.770Z,100319.84
2018-09-13T23:10:36.581Z,100315.92
2018-09-13T23:13:04.258Z,100321.59
2018-09-13T23:15:32.092Z,100312.12
2018-09-13T23:17:59.796Z,100315.64
2018-09-13T23:20:27.484Z,100309.16
2018-09-13T23:22:55.251Z,100300.06
2018-09-13T23:25:22.909Z,100303.30
2018-09-13T23:27:50.612Z,100297.69
2018-09-13T23:30:18.292Z,100288.09
2018-09-13T23:32:45.983Z,100296.82
2018-09-13T23:35:13.708Z,100297.45
2018-09-13T23:37:41.423Z,100288.89
2018-09-13T23:40:09.280Z,100298.50
2018-09-13T23:42:36.953Z,100296.33
2018-09-13T23:45:05.185Z,100292.33
2018-09-13T23:47:32.899Z,100290.22
2018-09-13T23:50:00.577Z,100287.62
2018-09-13T23:52:28.279Z,100285.07
2018-09-13T23:54:56.140Z,100288.55
2018-09-13T23:57:23.828Z,100279.82
2018-09-13T23:59:51.519Z,100288.09
